sensor_id;sensor_type;location;lat;lon;timestamp;P1;durP1;ratioP1;P2;durP2;ratioP2
59040;SDS011;44825;53.200;6.448;2023-07-13T00:01:18;10.25;;;2.80;;
59040;SDS011;44825;53.200;6.448;2023-07-13T00:03:44;14.45;;;3.08;;
59040;SDS011;44825;53.200;6.448;2023-07-13T00:06:10;12.15;;;2.97;;
59040;SDS011;44825;53.200;6.448;2023-07-13T00:08:36;14.85;;;4.03;;
59040;SDS011;44825;53.200;6.448;2023-07-13T00:11:03;9.70;;;2.85;;
59040;SDS011;44825;53.200;6.448;2023-07-13T00:13:29;9.27;;;2.40;;
59040;SDS011;44825;53.200;6.448;2023-07-13T00:15:57;8.70;;;2.40;;
59040;SDS011;44825;53.200;6.448;2023-07-13T00:18:23;13.10;;;2.88;;
59040;SDS011;44825;53.200;6.448;2023-07-13T00:20:49;12.30;;;2.47;;
59040;SDS011;44825;53.200;6.448;2023-07-13T00:23:16;10.90;;;2.65;;
59040;SDS011;44825;53.200;6.448;2023-07-13T00:25:42;11.05;;;3.00;;
59040;SDS011;44825;53.200;6.448;2023-07-13T00:28:08;9.68;;;2.67;;
59040;SDS011;44825;53.200;6.448;2023-07-13T00:30:34;12.70;;;2.63;;
59040;SDS011;44825;53.200;6.448;2023-07-13T00:33:00;13.38;;;3.45;;
59040;SDS011;44825;53.200;6.448;2023-07-13T00:35:26;13.38;;;3.70;;
59040;SDS011;44825;53.200;6.448;2023-07-13T00:37:52;9.75;;;2.35;;
59040;SDS011;44825;53.200;6.448;2023-07-13T00:40:18;11.65;;;3.38;;
59040;SDS011;44825;53.200;6.448;2023-07-13T00:42:44;10.60;;;2.65;;
59040;SDS011;44825;53.200;6.448;2023-07-13T00:47:37;15.05;;;3.47;;
59040;SDS011;44825;53.200;6.448;2023-07-13T00:50:03;16.50;;;3.08;;
59040;SDS011;44825;53.200;6.448;2023-07-13T00:52:30;11.13;;;3.13;;
59040;SDS011;44825;53.200;6.448;2023-07-13T00:54:56;15.35;;;4.10;;
59040;SDS011;44825;53.200;6.448;2023-07-13T00:57:23;12.93;;;3.13;;
59040;SDS011;44825;53.200;6.448;2023-07-13T00:59:51;13.40;;;3.13;;
59040;SDS011;44825;53.200;6.448;2023-07-13T01:02:17;12.40;;;2.83;;
59040;SDS011;44825;53.200;6.448;2023-07-13T01:04:43;10.18;;;2.97;;
59040;SDS011;44825;53.200;6.448;2023-07-13T01:07:10;11.85;;;2.80;;
59040;SDS011;44825;53.200;6.448;2023-07-13T01:09:36;11.95;;;2.80;;
59040;SDS011;44825;53.200;6.448;2023-07-13T01:12:03;12.38;;;2.83;;
59040;SDS011;44825;53.200;6.448;2023-07-13T01:14:29;15.63;;;3.65;;
59040;SDS011;44825;53.200;6.448;2023-07-13T01:16:55;8.73;;;2.67;;
59040;SDS011;44825;53.200;6.448;2023-07-13T01:19:41;17.05;;;3.67;;
59040;SDS011;44825;53.200;6.448;2023-07-13T01:22:09;15.32;;;3.22;;
59040;SDS011;44825;53.200;6.448;2023-07-13T01:24:36;8.32;;;2.40;;
59040;SDS011;44825;53.200;6.448;2023-07-13T01:27:03;15.52;;;3.63;;
59040;SDS011;44825;53.200;6.448;2023-07-13T01:29:31;9.63;;;2.58;;
59040;SDS011;44825;53.200;6.448;2023-07-13T01:31:57;18.15;;;4.22;;
59040;SDS011;44825;53.200;6.448;2023-07-13T01:34:25;13.18;;;3.20;;
59040;SDS011;44825;53.200;6.448;2023-07-13T01:36:51;10.13;;;3.10;;
59040;SDS011;44825;53.200;6.448;2023-07-13T01:39:18;9.60;;;2.60;;
59040;SDS011;44825;53.200;6.448;2023-07-13T01:41:44;11.35;;;2.38;;
59040;SDS011;44825;53.200;6.448;2023-07-13T01:44:10;6.47;;;2.22;;
59040;SDS011;44825;53.200;6.448;2023-07-13T01:46:36;12.50;;;2.75;;
59040;SDS011;44825;53.200;6.448;2023-07-13T01:49:02;10.60;;;2.10;;
59040;SDS011;44825;53.200;6.448;2023-07-13T01:51:29;7.93;;;1.83;;
59040;SDS011;44825;53.200;6.448;2023-07-13T01:53:55;8.13;;;1.50;;
59040;SDS011;44825;53.200;6.448;2023-07-13T01:56:21;6.72;;;1.38;;
59040;SDS011;44825;53.200;6.448;2023-07-13T01:58:47;5.10;;;1.50;;
59040;SDS011;44825;53.200;6.448;2023-07-13T02:01:13;6.90;;;1.52;;
59040;SDS011;44825;53.200;6.448;2023-07-13T02:03:39;4.78;;;1.38;;
59040;SDS011;44825;53.200;6.448;2023-07-13T02:06:05;5.25;;;1.17;;
59040;SDS011;44825;53.200;6.448;2023-07-13T02:08:34;7.68;;;1.30;;
59040;SDS011;44825;53.200;6.448;2023-07-13T02:11:02;4.88;;;1.17;;
59040;SDS011;44825;53.200;6.448;2023-07-13T02:13:28;5.63;;;1.30;;
59040;SDS011;44825;53.200;6.448;2023-07-13T02:15:54;11.25;;;1.83;;
59040;SDS011;44825;53.200;6.448;2023-07-13T02:18:21;5.85;;;1.42;;
59040;SDS011;44825;53.200;6.448;2023-07-13T02:20:47;6.22;;;1.80;;
59040;SDS011;44825;53.200;6.448;2023-07-13T02:23:13;6.05;;;1.40;;
59040;SDS011;44825;53.200;6.448;2023-07-13T02:25:39;7.18;;;1.30;;
59040;SDS011;44825;53.200;6.448;2023-07-13T02:28:06;3.67;;;1.10;;
59040;SDS011;44825;53.200;6.448;2023-07-13T02:30:32;6.10;;;1.10;;
59040;SDS011;44825;53.200;6.448;2023-07-13T02:32:58;4.35;;;0.82;;
59040;SDS011;44825;53.200;6.448;2023-07-13T02:35:24;4.30;;;1.17;;
59040;SDS011;44825;53.200;6.448;2023-07-13T02:37:50;6.45;;;1.45;;
59040;SDS011;44825;53.200;6.448;2023-07-13T02:40:16;6.75;;;1.20;;
59040;SDS011;44825;53.200;6.448;2023-07-13T02:42:42;4.25;;;1.10;;
59040;SDS011;44825;53.200;6.448;2023-07-13T02:45:08;6.82;;;1.40;;
59040;SDS011;44825;53.200;6.448;2023-07-13T02:47:35;6.05;;;1.55;;
59040;SDS011;44825;53.200;6.448;2023-07-13T02:50:01;4.75;;;1.65;;
59040;SDS011;44825;53.200;6.448;2023-07-13T02:52:27;8.35;;;1.67;;
59040;SDS011;44825;53.200;6.448;2023-07-13T02:54:53;6.82;;;2.00;;
59040;SDS011;44825;53.200;6.448;2023-07-13T02:57:20;12.48;;;1.80;;
59040;SDS011;44825;53.200;6.448;2023-07-13T02:59:46;10.23;;;1.92;;
59040;SDS011;44825;53.200;6.448;2023-07-13T03:02:12;7.93;;;2.47;;
59040;SDS011;44825;53.200;6.448;2023-07-13T03:04:38;7.43;;;2.22;;
59040;SDS011;44825;53.200;6.448;2023-07-13T03:07:06;12.07;;;2.83;;
59040;SDS011;44825;53.200;6.448;2023-07-13T03:09:32;9.20;;;3.08;;
59040;SDS011;44825;53.200;6.448;2023-07-13T03:11:59;12.38;;;2.85;;
59040;SDS011;44825;53.200;6.448;2023-07-13T03:14:25;7.18;;;2.38;;
59040;SDS011;44825;53.200;6.448;2023-07-13T03:16:51;9.10;;;2.90;;
59040;SDS011;44825;53.200;6.448;2023-07-13T03:19:17;6.68;;;2.15;;
59040;SDS011;44825;53.200;6.448;2023-07-13T03:21:44;10.77;;;2.85;;
59040;SDS011;44825;53.200;6.448;2023-07-13T03:24:10;10.75;;;2.90;;
59040;SDS011;44825;53.200;6.448;2023-07-13T03:26:36;7.80;;;2.78;;
59040;SDS011;44825;53.200;6.448;2023-07-13T03:29:02;11.77;;;3.40;;
59040;SDS011;44825;53.200;6.448;2023-07-13T03:31:29;13.32;;;3.65;;
59040;SDS011;44825;53.200;6.448;2023-07-13T03:33:56;11.18;;;3.05;;
59040;SDS011;44825;53.200;6.448;2023-07-13T03:36:23;10.18;;;2.95;;
59040;SDS011;44825;53.200;6.448;2023-07-13T03:38:51;12.07;;;3.47;;
59040;SDS011;44825;53.200;6.448;2023-07-13T03:41:17;16.02;;;3.42;;
59040;SDS011;44825;53.200;6.448;2023-07-13T03:43:43;12.70;;;3.55;;
59040;SDS011;44825;53.200;6.448;2023-07-13T03:46:09;14.57;;;3.28;;
59040;SDS011;44825;53.200;6.448;2023-07-13T03:48:35;11.32;;;3.60;;
59040;SDS011;44825;53.200;6.448;2023-07-13T03:51:02;15.35;;;3.25;;
59040;SDS011;44825;53.200;6.448;2023-07-13T03:53:28;17.90;;;3.78;;
59040;SDS011;44825;53.200;6.448;2023-07-13T03:55:54;13.40;;;3.65;;
59040;SDS011;44825;53.200;6.448;2023-07-13T03:58:24;16.80;;;3.67;;
59040;SDS011;44825;53.200;6.448;2023-07-13T04:00:51;13.10;;;3.65;;
59040;SDS011;44825;53.200;6.448;2023-07-13T04:03:17;10.95;;;2.60;;
59040;SDS011;44825;53.200;6.448;2023-07-13T04:05:43;8.93;;;2.85;;
59040;SDS011;44825;53.200;6.448;2023-07-13T04:08:10;10.00;;;2.78;;
59040;SDS011;44825;53.200;6.448;2023-07-13T04:10:36;13.40;;;3.78;;
59040;SDS011;44825;53.200;6.448;2023-07-13T04:13:02;11.25;;;3.05;;
59040;SDS011;44825;53.200;6.448;2023-07-13T04:15:29;10.50;;;3.22;;
59040;SDS011;44825;53.200;6.448;2023-07-13T04:17:56;11.35;;;3.20;;
59040;SDS011;44825;53.200;6.448;2023-07-13T04:20:22;9.60;;;2.75;;
59040;SDS011;44825;53.200;6.448;2023-07-13T04:22:49;9.30;;;2.40;;
59040;SDS011;44825;53.200;6.448;2023-07-13T04:25:15;12.93;;;2.95;;
59040;SDS011;44825;53.200;6.448;2023-07-13T04:27:41;12.90;;;2.97;;
59040;SDS011;44825;53.200;6.448;2023-07-13T04:30:07;13.48;;;3.00;;
59040;SDS011;44825;53.200;6.448;2023-07-13T04:32:33;11.88;;;3.45;;
59040;SDS011;44825;53.200;6.448;2023-07-13T04:34:59;14.20;;;2.80;;
59040;SDS011;44825;53.200;6.448;2023-07-13T04:37:26;12.18;;;3.00;;
59040;SDS011;44825;53.200;6.448;2023-07-13T04:39:52;10.98;;;3.50;;
59040;SDS011;44825;53.200;6.448;2023-07-13T04:42:18;8.85;;;2.78;;
59040;SDS011;44825;53.200;6.448;2023-07-13T04:44:50;13.45;;;3.63;;
59040;SDS011;44825;53.200;6.448;2023-07-13T04:47:17;12.73;;;2.88;;
59040;SDS011;44825;53.200;6.448;2023-07-13T04:49:44;12.60;;;3.10;;
59040;SDS011;44825;53.200;6.448;2023-07-13T04:52:10;12.95;;;2.85;;
59040;SDS011;44825;53.200;6.448;2023-07-13T04:54:37;11.90;;;3.35;;
59040;SDS011;44825;53.200;6.448;2023-07-13T04:57:04;11.57;;;2.90;;
59040;SDS011;44825;53.200;6.448;2023-07-13T04:59:31;12.07;;;3.15;;
59040;SDS011;44825;53.200;6.448;2023-07-13T05:01:57;14.88;;;3.38;;
59040;SDS011;44825;53.200;6.448;2023-07-13T05:04:23;8.35;;;2.30;;
59040;SDS011;44825;53.200;6.448;2023-07-13T05:06:49;8.30;;;2.58;;
59040;SDS011;44825;53.200;6.448;2023-07-13T05:09:16;10.13;;;2.47;;
59040;SDS011;44825;53.200;6.448;2023-07-13T05:11:42;7.68;;;2.78;;
59040;SDS011;44825;53.200;6.448;2023-07-13T05:14:08;9.13;;;2.53;;
59040;SDS011;44825;53.200;6.448;2023-07-13T05:16:35;10.25;;;2.90;;
59040;SDS011;44825;53.200;6.448;2023-07-13T05:19:01;11.77;;;3.03;;
59040;SDS011;44825;53.200;6.448;2023-07-13T05:21:27;12.93;;;2.63;;
59040;SDS011;44825;53.200;6.448;2023-07-13T05:23:53;9.63;;;2.95;;
59040;SDS011;44825;53.200;6.448;2023-07-13T05:26:19;10.63;;;2.70;;
59040;SDS011;44825;53.200;6.448;2023-07-13T05:28:46;11.40;;;3.17;;
59040;SDS011;44825;53.200;6.448;2023-07-13T05:31:12;10.38;;;2.55;;
59040;SDS011;44825;53.200;6.448;2023-07-13T05:33:38;11.88;;;3.03;;
59040;SDS011;44825;53.200;6.448;2023-07-13T05:36:05;12.10;;;3.10;;
59040;SDS011;44825;53.200;6.448;2023-07-13T05:38:32;9.95;;;2.45;;
59040;SDS011;44825;53.200;6.448;2023-07-13T05:40:58;10.85;;;3.58;;
59040;SDS011;44825;53.200;6.448;2023-07-13T05:43:24;10.60;;;2.83;;
59040;SDS011;44825;53.200;6.448;2023-07-13T05:45:52;9.75;;;3.28;;
59040;SDS011;44825;53.200;6.448;2023-07-13T05:48:18;12.80;;;2.85;;
59040;SDS011;44825;53.200;6.448;2023-07-13T05:50:44;12.73;;;2.63;;
59040;SDS011;44825;53.200;6.448;2023-07-13T05:53:11;10.65;;;2.88;;
59040;SDS011;44825;53.200;6.448;2023-07-13T05:55:40;8.50;;;2.53;;
59040;SDS011;44825;53.200;6.448;2023-07-13T05:58:07;10.45;;;3.25;;
59040;SDS011;44825;53.200;6.448;2023-07-13T06:00:33;8.73;;;3.08;;
59040;SDS011;44825;53.200;6.448;2023-07-13T06:02:59;9.73;;;2.30;;
59040;SDS011;44825;53.200;6.448;2023-07-13T06:05:25;10.98;;;2.08;;
59040;SDS011;44825;53.200;6.448;2023-07-13T06:07:53;8.98;;;2.33;;
59040;SDS011;44825;53.200;6.448;2023-07-13T06:10:20;11.40;;;3.25;;
59040;SDS011;44825;53.200;6.448;2023-07-13T06:12:46;13.20;;;2.53;;
59040;SDS011;44825;53.200;6.448;2023-07-13T06:15:12;8.45;;;2.40;;
59040;SDS011;44825;53.200;6.448;2023-07-13T06:17:38;8.55;;;2.38;;
59040;SDS011;44825;53.200;6.448;2023-07-13T06:20:04;8.43;;;2.30;;
59040;SDS011;44825;53.200;6.448;2023-07-13T06:22:30;8.13;;;2.28;;
59040;SDS011;44825;53.200;6.448;2023-07-13T06:24:56;9.45;;;2.28;;
59040;SDS011;44825;53.200;6.448;2023-07-13T06:27:22;9.02;;;2.42;;
59040;SDS011;44825;53.200;6.448;2023-07-13T06:29:48;6.95;;;1.98;;
59040;SDS011;44825;53.200;6.448;2023-07-13T06:32:14;8.57;;;2.05;;
59040;SDS011;44825;53.200;6.448;2023-07-13T06:34:40;9.93;;;2.30;;
59040;SDS011;44825;53.200;6.448;2023-07-13T06:37:08;8.00;;;2.53;;
59040;SDS011;44825;53.200;6.448;2023-07-13T06:39:34;9.82;;;2.47;;
59040;SDS011;44825;53.200;6.448;2023-07-13T06:42:01;7.15;;;2.03;;
59040;SDS011;44825;53.200;6.448;2023-07-13T06:44:27;10.07;;;2.03;;
59040;SDS011;44825;53.200;6.448;2023-07-13T06:46:53;8.27;;;1.70;;
59040;SDS011;44825;53.200;6.448;2023-07-13T06:49:19;6.63;;;1.88;;
59040;SDS011;44825;53.200;6.448;2023-07-13T06:51:45;12.98;;;2.78;;
59040;SDS011;44825;53.200;6.448;2023-07-13T06:54:11;7.93;;;1.75;;
59040;SDS011;44825;53.200;6.448;2023-07-13T06:56:38;6.60;;;1.98;;
59040;SDS011;44825;53.200;6.448;2023-07-13T06:59:04;7.35;;;1.73;;
59040;SDS011;44825;53.200;6.448;2023-07-13T07:01:30;8.68;;;1.95;;
59040;SDS011;44825;53.200;6.448;2023-07-13T07:03:56;8.15;;;2.08;;
59040;SDS011;44825;53.200;6.448;2023-07-13T07:06:22;8.60;;;2.72;;
59040;SDS011;44825;53.200;6.448;2023-07-13T07:08:49;10.07;;;2.47;;
59040;SDS011;44825;53.200;6.448;2023-07-13T07:11:21;11.65;;;2.10;;
59040;SDS011;44825;53.200;6.448;2023-07-13T07:13:48;5.33;;;1.90;;
59040;SDS011;44825;53.200;6.448;2023-07-13T07:16:14;7.13;;;1.55;;
59040;SDS011;44825;53.200;6.448;2023-07-13T07:18:40;7.25;;;1.80;;
59040;SDS011;44825;53.200;6.448;2023-07-13T07:21:06;4.57;;;1.38;;
59040;SDS011;44825;53.200;6.448;2023-07-13T07:23:32;4.78;;;1.60;;
59040;SDS011;44825;53.200;6.448;2023-07-13T07:25:58;4.05;;;1.20;;
59040;SDS011;44825;53.200;6.448;2023-07-13T07:28:25;5.40;;;1.50;;
59040;SDS011;44825;53.200;6.448;2023-07-13T07:30:53;6.25;;;1.65;;
59040;SDS011;44825;53.200;6.448;2023-07-13T07:33:19;6.53;;;1.55;;
59040;SDS011;44825;53.200;6.448;2023-07-13T07:35:46;5.80;;;1.70;;
59040;SDS011;44825;53.200;6.448;2023-07-13T07:38:12;6.15;;;1.48;;
59040;SDS011;44825;53.200;6.448;2023-07-13T07:40:38;6.93;;;1.52;;
59040;SDS011;44825;53.200;6.448;2023-07-13T07:43:05;5.68;;;1.40;;
59040;SDS011;44825;53.200;6.448;2023-07-13T07:45:31;9.48;;;2.00;;
59040;SDS011;44825;53.200;6.448;2023-07-13T07:47:57;5.70;;;1.70;;
59040;SDS011;44825;53.200;6.448;2023-07-13T07:50:27;6.65;;;1.92;;
59040;SDS011;44825;53.200;6.448;2023-07-13T07:52:53;6.57;;;1.30;;
59040;SDS011;44825;53.200;6.448;2023-07-13T07:55:21;3.90;;;1.50;;
59040;SDS011;44825;53.200;6.448;2023-07-13T07:57:47;6.35;;;1.63;;
59040;SDS011;44825;53.200;6.448;2023-07-13T08:00:13;6.90;;;1.63;;
59040;SDS011;44825;53.200;6.448;2023-07-13T08:02:39;3.92;;;1.23;;
59040;SDS011;44825;53.200;6.448;2023-07-13T08:05:06;4.55;;;1.30;;
59040;SDS011;44825;53.200;6.448;2023-07-13T08:07:33;7.07;;;1.38;;
59040;SDS011;44825;53.200;6.448;2023-07-13T08:09:59;3.85;;;1.40;;
59040;SDS011;44825;53.200;6.448;2023-07-13T08:12:25;4.65;;;1.13;;
59040;SDS011;44825;53.200;6.448;2023-07-13T08:14:51;5.28;;;1.40;;
59040;SDS011;44825;53.200;6.448;2023-07-13T08:17:19;4.03;;;1.20;;
59040;SDS011;44825;53.200;6.448;2023-07-13T08:19:45;8.25;;;1.55;;
59040;SDS011;44825;53.200;6.448;2023-07-13T08:22:11;6.05;;;1.58;;
59040;SDS011;44825;53.200;6.448;2023-07-13T08:24:37;6.82;;;1.70;;
59040;SDS011;44825;53.200;6.448;2023-07-13T08:27:04;8.20;;;2.03;;
59040;SDS011;44825;53.200;6.448;2023-07-13T08:29:30;4.32;;;1.80;;
59040;SDS011;44825;53.200;6.448;2023-07-13T08:31:59;7.28;;;2.33;;
59040;SDS011;44825;53.200;6.448;2023-07-13T08:34:25;6.07;;;1.70;;
59040;SDS011;44825;53.200;6.448;2023-07-13T08:36:51;5.80;;;1.60;;
59040;SDS011;44825;53.200;6.448;2023-07-13T08:39:17;8.13;;;2.20;;
59040;SDS011;44825;53.200;6.448;2023-07-13T08:41:45;7.57;;;1.92;;
59040;SDS011;44825;53.200;6.448;2023-07-13T08:44:16;6.70;;;1.83;;
59040;SDS011;44825;53.200;6.448;2023-07-13T08:46:44;5.43;;;1.80;;
59040;SDS011;44825;53.200;6.448;2023-07-13T08:54:10;7.53;;;1.83;;
59040;SDS011;44825;53.200;6.448;2023-07-13T08:56:38;7.78;;;1.83;;
59040;SDS011;44825;53.200;6.448;2023-07-13T08:59:06;5.10;;;1.60;;
59040;SDS011;44825;53.200;6.448;2023-07-13T09:04:25;5.47;;;1.70;;
59040;SDS011;44825;53.200;6.448;2023-07-13T09:14:33;7.47;;;1.75;;
59040;SDS011;44825;53.200;6.448;2023-07-13T09:17:01;6.38;;;1.70;;
59040;SDS011;44825;53.200;6.448;2023-07-13T09:19:29;6.93;;;1.88;;
59040;SDS011;44825;53.200;6.448;2023-07-13T09:21:57;4.82;;;1.40;;
59040;SDS011;44825;53.200;6.448;2023-07-13T09:26:50;8.13;;;1.70;;
59040;SDS011;44825;53.200;6.448;2023-07-13T09:29:23;5.93;;;1.75;;
59040;SDS011;44825;53.200;6.448;2023-07-13T09:31:52;3.67;;;1.55;;
59040;SDS011;44825;53.200;6.448;2023-07-13T09:34:19;6.85;;;1.85;;
59040;SDS011;44825;53.200;6.448;2023-07-13T09:36:45;5.88;;;1.75;;
59040;SDS011;44825;53.200;6.448;2023-07-13T09:39:23;4.07;;;1.40;;
59040;SDS011;44825;53.200;6.448;2023-07-13T09:42:01;6.53;;;1.45;;
59040;SDS011;44825;53.200;6.448;2023-07-13T09:44:31;5.80;;;1.50;;
59040;SDS011;44825;53.200;6.448;2023-07-13T09:46:57;6.03;;;1.60;;
59040;SDS011;44825;53.200;6.448;2023-07-13T09:49:27;6.78;;;1.90;;
59040;SDS011;44825;53.200;6.448;2023-07-13T09:51:58;6.60;;;1.27;;
59040;SDS011;44825;53.200;6.448;2023-07-13T09:54:25;5.28;;;1.58;;
59040;SDS011;44825;53.200;6.448;2023-07-13T09:56:55;5.95;;;1.38;;
59040;SDS011;44825;53.200;6.448;2023-07-13T09:59:22;5.15;;;1.17;;
59040;SDS011;44825;53.200;6.448;2023-07-13T10:01:49;5.57;;;1.08;;
59040;SDS011;44825;53.200;6.448;2023-07-13T10:04:18;4.20;;;1.10;;
59040;SDS011;44825;53.200;6.448;2023-07-13T10:06:45;3.83;;;1.00;;
59040;SDS011;44825;53.200;6.448;2023-07-13T10:09:15;4.25;;;1.95;;
59040;SDS011;44825;53.200;6.448;2023-07-13T10:11:42;4.50;;;1.10;;
59040;SDS011;44825;53.200;6.448;2023-07-13T10:16:35;3.05;;;0.75;;
59040;SDS011;44825;53.200;6.448;2023-07-13T10:19:06;3.85;;;1.00;;
59040;SDS011;44825;53.200;6.448;2023-07-13T10:21:38;4.22;;;1.25;;
59040;SDS011;44825;53.200;6.448;2023-07-13T10:26:46;2.85;;;0.88;;
59040;SDS011;44825;53.200;6.448;2023-07-13T10:29:14;4.55;;;1.05;;
59040;SDS011;44825;53.200;6.448;2023-07-13T10:31:41;2.85;;;0.70;;
59040;SDS011;44825;53.200;6.448;2023-07-13T10:34:13;3.58;;;1.00;;
59040;SDS011;44825;53.200;6.448;2023-07-13T10:36:43;6.50;;;1.27;;
59040;SDS011;44825;53.200;6.448;2023-07-13T10:39:14;3.72;;;1.10;;
59040;SDS011;44825;53.200;6.448;2023-07-13T10:41:41;5.40;;;1.13;;
59040;SDS011;44825;53.200;6.448;2023-07-13T10:44:14;3.38;;;1.00;;
59040;SDS011;44825;53.200;6.448;2023-07-13T10:46:42;5.93;;;1.33;;
59040;SDS011;44825;53.200;6.448;2023-07-13T10:49:10;3.28;;;1.00;;
59040;SDS011;44825;53.200;6.448;2023-07-13T10:51:36;2.97;;;1.08;;
59040;SDS011;44825;53.200;6.448;2023-07-13T10:54:19;3.53;;;1.10;;
59040;SDS011;44825;53.200;6.448;2023-07-13T10:56:50;3.53;;;0.88;;
59040;SDS011;44825;53.200;6.448;2023-07-13T10:59:17;7.18;;;0.70;;
59040;SDS011;44825;53.200;6.448;2023-07-13T11:01:53;4.63;;;0.93;;
59040;SDS011;44825;53.200;6.448;2023-07-13T11:04:21;4.03;;;1.10;;
59040;SDS011;44825;53.200;6.448;2023-07-13T11:06:50;2.80;;;1.00;;
59040;SDS011;44825;53.200;6.448;2023-07-13T11:11:42;3.38;;;1.00;;
59040;SDS011;44825;53.200;6.448;2023-07-13T11:16:53;5.95;;;1.00;;
59040;SDS011;44825;53.200;6.448;2023-07-13T11:22:02;7.10;;;1.35;;
59040;SDS011;44825;53.200;6.448;2023-07-13T11:24:29;4.40;;;1.38;;
59040;SDS011;44825;53.200;6.448;2023-07-13T11:26:55;4.47;;;1.02;;
59040;SDS011;44825;53.200;6.448;2023-07-13T11:31:51;6.28;;;1.17;;
59040;SDS011;44825;53.200;6.448;2023-07-13T11:34:18;3.78;;;1.00;;
59040;SDS011;44825;53.200;6.448;2023-07-13T11:36:47;4.72;;;1.25;;
59040;SDS011;44825;53.200;6.448;2023-07-13T11:39:18;3.70;;;1.10;;
59040;SDS011;44825;53.200;6.448;2023-07-13T11:41:49;4.05;;;1.10;;
59040;SDS011;44825;53.200;6.448;2023-07-13T11:44:17;5.70;;;1.00;;
59040;SDS011;44825;53.200;6.448;2023-07-13T11:46:48;5.30;;;1.48;;
59040;SDS011;44825;53.200;6.448;2023-07-13T11:49:16;4.57;;;1.15;;
59040;SDS011;44825;53.200;6.448;2023-07-13T11:51:43;4.53;;;1.20;;
59040;SDS011;44825;53.200;6.448;2023-07-13T11:54:19;4.45;;;1.60;;
59040;SDS011;44825;53.200;6.448;2023-07-13T11:56:47;8.43;;;1.67;;
59040;SDS011;44825;53.200;6.448;2023-07-13T11:59:14;6.38;;;1.10;;
59040;SDS011;44825;53.200;6.448;2023-07-13T12:01:45;7.53;;;1.30;;
59040;SDS011;44825;53.200;6.448;2023-07-13T12:04:26;5.25;;;1.30;;
59040;SDS011;44825;53.200;6.448;2023-07-13T12:07:36;5.30;;;1.45;;
59040;SDS011;44825;53.200;6.448;2023-07-13T12:09:43;5.18;;;1.25;;
59040;SDS011;44825;53.200;6.448;2023-07-13T12:12:13;8.05;;;1.70;;
59040;SDS011;44825;53.200;6.448;2023-07-13T12:14:39;4.93;;;1.20;;
59040;SDS011;44825;53.200;6.448;2023-07-13T12:17:08;5.32;;;1.20;;
59040;SDS011;44825;53.200;6.448;2023-07-13T12:19:37;4.85;;;1.00;;
59040;SDS011;44825;53.200;6.448;2023-07-13T12:22:04;4.78;;;1.38;;
59040;SDS011;44825;53.200;6.448;2023-07-13T12:24:30;5.00;;;1.27;;
59040;SDS011;44825;53.200;6.448;2023-07-13T12:27:03;7.97;;;1.38;;
59040;SDS011;44825;53.200;6.448;2023-07-13T12:31:56;5.25;;;1.75;;
59040;SDS011;44825;53.200;6.448;2023-07-13T12:34:23;6.40;;;1.50;;
59040;SDS011;44825;53.200;6.448;2023-07-13T12:36:56;4.55;;;1.30;;
59040;SDS011;44825;53.200;6.448;2023-07-13T12:39:25;3.25;;;1.25;;
59040;SDS011;44825;53.200;6.448;2023-07-13T12:41:52;6.03;;;1.30;;
59040;SDS011;44825;53.200;6.448;2023-07-13T12:44:23;4.20;;;1.20;;
59040;SDS011;44825;53.200;6.448;2023-07-13T12:47:25;3.22;;;1.02;;
59040;SDS011;44825;53.200;6.448;2023-07-13T12:49:54;5.03;;;1.00;;
59040;SDS011;44825;53.200;6.448;2023-07-13T12:52:22;5.68;;;1.58;;
59040;SDS011;44825;53.200;6.448;2023-07-13T12:54:55;4.53;;;1.45;;
59040;SDS011;44825;53.200;6.448;2023-07-13T12:57:22;4.28;;;1.30;;
59040;SDS011;44825;53.200;6.448;2023-07-13T12:59:51;6.40;;;1.50;;
59040;SDS011;44825;53.200;6.448;2023-07-13T13:02:31;4.10;;;1.25;;
59040;SDS011;44825;53.200;6.448;2023-07-13T13:04:59;5.43;;;1.27;;
59040;SDS011;44825;53.200;6.448;2023-07-13T13:07:25;4.47;;;1.50;;
59040;SDS011;44825;53.200;6.448;2023-07-13T13:09:51;5.95;;;1.30;;
59040;SDS011;44825;53.200;6.448;2023-07-13T13:12:21;8.48;;;1.70;;
59040;SDS011;44825;53.200;6.448;2023-07-13T13:14:49;5.05;;;1.60;;
59040;SDS011;44825;53.200;6.448;2023-07-13T13:17:25;6.75;;;1.95;;
59040;SDS011;44825;53.200;6.448;2023-07-13T13:19:52;10.90;;;2.35;;
59040;SDS011;44825;53.200;6.448;2023-07-13T13:22:19;5.53;;;1.60;;
59040;SDS011;44825;53.200;6.448;2023-07-13T13:24:45;6.20;;;1.30;;
59040;SDS011;44825;53.200;6.448;2023-07-13T13:27:15;5.65;;;1.85;;
59040;SDS011;44825;53.200;6.448;2023-07-13T13:29:42;5.07;;;1.33;;
59040;SDS011;44825;53.200;6.448;2023-07-13T13:32:11;6.25;;;1.70;;
59040;SDS011;44825;53.200;6.448;2023-07-13T13:34:38;3.72;;;1.08;;
59040;SDS011;44825;53.200;6.448;2023-07-13T13:37:04;6.07;;;1.55;;
59040;SDS011;44825;53.200;6.448;2023-07-13T13:39:35;3.25;;;1.00;;
59040;SDS011;44825;53.200;6.448;2023-07-13T13:42:02;6.57;;;1.23;;
59040;SDS011;44825;53.200;6.448;2023-07-13T13:44:28;4.53;;;1.23;;
59040;SDS011;44825;53.200;6.448;2023-07-13T13:46:54;6.15;;;1.70;;
59040;SDS011;44825;53.200;6.448;2023-07-13T13:49:24;6.60;;;1.67;;
59040;SDS011;44825;53.200;6.448;2023-07-13T13:51:51;7.30;;;1.85;;
59040;SDS011;44825;53.200;6.448;2023-07-13T13:54:18;7.82;;;2.03;;
59040;SDS011;44825;53.200;6.448;2023-07-13T13:56:45;7.13;;;2.05;;
59040;SDS011;44825;53.200;6.448;2023-07-13T13:59:12;5.18;;;1.35;;
59040;SDS011;44825;53.200;6.448;2023-07-13T14:01:39;5.68;;;1.50;;
59040;SDS011;44825;53.200;6.448;2023-07-13T14:04:05;3.85;;;1.50;;
59040;SDS011;44825;53.200;6.448;2023-07-13T14:06:32;7.30;;;1.52;;
59040;SDS011;44825;53.200;6.448;2023-07-13T14:08:59;5.50;;;1.55;;
59040;SDS011;44825;53.200;6.448;2023-07-13T14:11:26;6.80;;;1.70;;
59040;SDS011;44825;53.200;6.448;2023-07-13T14:13:55;4.78;;;1.30;;
59040;SDS011;44825;53.200;6.448;2023-07-13T14:16:22;6.55;;;1.52;;
59040;SDS011;44825;53.200;6.448;2023-07-13T14:18:52;5.20;;;1.80;;
59040;SDS011;44825;53.200;6.448;2023-07-13T14:21:20;6.43;;;1.48;;
59040;SDS011;44825;53.200;6.448;2023-07-13T14:23:46;5.18;;;1.42;;
59040;SDS011;44825;53.200;6.448;2023-07-13T14:26:14;6.10;;;1.45;;
59040;SDS011;44825;53.200;6.448;2023-07-13T14:28:47;8.15;;;1.60;;
59040;SDS011;44825;53.200;6.448;2023-07-13T14:33:40;6.57;;;1.80;;
59040;SDS011;44825;53.200;6.448;2023-07-13T14:36:40;4.43;;;1.50;;
59040;SDS011;44825;53.200;6.448;2023-07-13T14:38:59;6.07;;;1.92;;
59040;SDS011;44825;53.200;6.448;2023-07-13T14:41:26;5.47;;;1.30;;
59040;SDS011;44825;53.200;6.448;2023-07-13T14:43:52;5.85;;;1.52;;
59040;SDS011;44825;53.200;6.448;2023-07-13T14:46:29;6.70;;;1.50;;
59040;SDS011;44825;53.200;6.448;2023-07-13T14:48:59;5.40;;;1.60;;
59040;SDS011;44825;53.200;6.448;2023-07-13T14:51:26;5.90;;;1.40;;
59040;SDS011;44825;53.200;6.448;2023-07-13T14:53:52;4.35;;;1.65;;
59040;SDS011;44825;53.200;6.448;2023-07-13T14:56:18;4.97;;;1.25;;
59040;SDS011;44825;53.200;6.448;2023-07-13T14:58:44;4.80;;;1.60;;
59040;SDS011;44825;53.200;6.448;2023-07-13T15:01:13;8.13;;;1.45;;
59040;SDS011;44825;53.200;6.448;2023-07-13T15:03:41;4.88;;;1.38;;
59040;SDS011;44825;53.200;6.448;2023-07-13T15:06:12;4.05;;;1.50;;
59040;SDS011;44825;53.200;6.448;2023-07-13T15:08:38;9.35;;;1.80;;
59040;SDS011;44825;53.200;6.448;2023-07-13T15:11:08;5.78;;;1.48;;
59040;SDS011;44825;53.200;6.448;2023-07-13T15:13:36;9.27;;;1.83;;
59040;SDS011;44825;53.200;6.448;2023-07-13T15:16:03;7.35;;;1.65;;
59040;SDS011;44825;53.200;6.448;2023-07-13T15:18:29;7.95;;;1.75;;
59040;SDS011;44825;53.200;6.448;2023-07-13T15:20:55;7.93;;;1.65;;
59040;SDS011;44825;53.200;6.448;2023-07-13T15:23:25;7.22;;;1.90;;
59040;SDS011;44825;53.200;6.448;2023-07-13T15:25:52;6.53;;;2.22;;